SETU/TUA METAR and TAF weather

Enter ICAO airport designator
Station Type Date Time Source
SETU METAR 2023/09/21 18:00 UTC NOAA

SETU 211800Z 14012G24KT 9999 SCT020 BKN200 17/07 Q1032


Station Type Date Time Source
SETU Decoded METAR 2023/09/21 18:00 UTC NOAA

Tulcan / El Rosal, Ecuador (SETU) 00-49N 077-42W
Sep 21, 2023 - 02:00 PM EDT / 2023.09.21 1800 UTC
Wind: from the SE (140 degrees) at 14 MPH (12 KT) gusting to 28 MPH (24 KT):0
Visibility: greater than 7 mile(s):0
Sky conditions: mostly cloudy
Temperature: 62 F (17 C)
Dew Point: 44 F (7 C)
Relative Humidity: 51%
Pressure (altimeter): 30.47 in. Hg (1032 hPa)
ob: SETU 211800Z 14012G24KT 9999 SCT020 BKN200 17/07 Q1032
cycle: 18

Station Type Date Time Source
SETU TAF UTC NOAA

Error!

Example: see airport list